sensor_id;sensor_type;location;lat;lon;timestamp;P1;durP1;ratioP1;P2;durP2;ratioP2
28170;SDS011;15458;53.346;-1.688;2022-09-09T00:02:01;34.10;;;15.20;;
28170;SDS011;15458;53.346;-1.688;2022-09-09T00:04:35;34.33;;;14.25;;
28170;SDS011;15458;53.346;-1.688;2022-09-09T00:07:23;34.35;;;15.02;;
28170;SDS011;15458;53.346;-1.688;2022-09-09T00:10:04;31.58;;;13.30;;
28170;SDS011;15458;53.346;-1.688;2022-09-09T00:12:52;31.85;;;14.32;;
28170;SDS011;15458;53.346;-1.688;2022-09-09T00:15:39;32.38;;;13.80;;
28170;SDS011;15458;53.346;-1.688;2022-09-09T00:23:33;35.85;;;14.63;;
28170;SDS011;15458;53.346;-1.688;2022-09-09T00:28:28;30.92;;;14.07;;
28170;SDS011;15458;53.346;-1.688;2022-09-09T00:30:59;34.35;;;14.30;;
28170;SDS011;15458;53.346;-1.688;2022-09-09T00:33:36;37.95;;;15.35;;
28170;SDS011;15458;53.346;-1.688;2022-09-09T00:36:04;34.83;;;15.38;;
28170;SDS011;15458;53.346;-1.688;2022-09-09T00:38:43;39.47;;;15.68;;
28170;SDS011;15458;53.346;-1.688;2022-09-09T00:44:31;29.65;;;15.25;;
28170;SDS011;15458;53.346;-1.688;2022-09-09T00:52:47;35.63;;;14.95;;
28170;SDS011;15458;53.346;-1.688;2022-09-09T00:58:35;34.85;;;16.48;;
28170;SDS011;15458;53.346;-1.688;2022-09-09T01:01:04;38.65;;;16.98;;
28170;SDS011;15458;53.346;-1.688;2022-09-09T01:03:37;36.13;;;16.17;;
28170;SDS011;15458;53.346;-1.688;2022-09-09T01:06:20;36.05;;;17.08;;
28170;SDS011;15458;53.346;-1.688;2022-09-09T01:20:12;33.28;;;16.20;;
28170;SDS011;15458;53.346;-1.688;2022-09-09T01:28:15;35.03;;;15.63;;
28170;SDS011;15458;53.346;-1.688;2022-09-09T01:30:44;31.15;;;13.65;;
28170;SDS011;15458;53.346;-1.688;2022-09-09T01:33:12;31.67;;;15.13;;
28170;SDS011;15458;53.346;-1.688;2022-09-09T01:38:25;36.50;;;16.02;;
28170;SDS011;15458;53.346;-1.688;2022-09-09T01:40:53;31.92;;;15.23;;
28170;SDS011;15458;53.346;-1.688;2022-09-09T01:43:21;25.23;;;13.55;;
28170;SDS011;15458;53.346;-1.688;2022-09-09T01:45:49;30.58;;;15.77;;
28170;SDS011;15458;53.346;-1.688;2022-09-09T01:48:18;34.42;;;16.20;;
28170;SDS011;15458;53.346;-1.688;2022-09-09T01:50:46;34.38;;;17.08;;
28170;SDS011;15458;53.346;-1.688;2022-09-09T01:53:11;34.92;;;16.02;;
28170;SDS011;15458;53.346;-1.688;2022-09-09T01:55:39;33.22;;;16.70;;
28170;SDS011;15458;53.346;-1.688;2022-09-09T02:04:07;32.78;;;16.80;;
28170;SDS011;15458;53.346;-1.688;2022-09-09T02:06:46;40.10;;;18.45;;
28170;SDS011;15458;53.346;-1.688;2022-09-09T02:09:15;39.60;;;17.93;;
28170;SDS011;15458;53.346;-1.688;2022-09-09T02:11:47;40.63;;;18.17;;
28170;SDS011;15458;53.346;-1.688;2022-09-09T02:14:17;40.92;;;17.85;;
28170;SDS011;15458;53.346;-1.688;2022-09-09T02:16:50;40.65;;;17.05;;
28170;SDS011;15458;53.346;-1.688;2022-09-09T02:19:35;42.40;;;18.45;;
28170;SDS011;15458;53.346;-1.688;2022-09-09T02:22:06;42.75;;;18.25;;
28170;SDS011;15458;53.346;-1.688;2022-09-09T02:24:33;35.72;;;16.55;;
28170;SDS011;15458;53.346;-1.688;2022-09-09T02:27:01;39.90;;;17.02;;
28170;SDS011;15458;53.346;-1.688;2022-09-09T02:29:33;39.83;;;17.48;;
28170;SDS011;15458;53.346;-1.688;2022-09-09T02:32:03;37.08;;;17.30;;
28170;SDS011;15458;53.346;-1.688;2022-09-09T02:34:33;45.50;;;17.60;;
28170;SDS011;15458;53.346;-1.688;2022-09-09T02:37:01;39.20;;;17.20;;
28170;SDS011;15458;53.346;-1.688;2022-09-09T02:39:29;43.50;;;18.23;;
28170;SDS011;15458;53.346;-1.688;2022-09-09T02:41:55;36.97;;;17.17;;
28170;SDS011;15458;53.346;-1.688;2022-09-09T02:44:21;41.58;;;18.02;;
28170;SDS011;15458;53.346;-1.688;2022-09-09T02:55:41;36.97;;;16.60;;
28170;SDS011;15458;53.346;-1.688;2022-09-09T02:58:14;35.63;;;17.25;;
28170;SDS011;15458;53.346;-1.688;2022-09-09T03:00:42;39.22;;;16.92;;
28170;SDS011;15458;53.346;-1.688;2022-09-09T03:03:10;39.45;;;17.52;;
28170;SDS011;15458;53.346;-1.688;2022-09-09T03:05:36;34.40;;;16.15;;
28170;SDS011;15458;53.346;-1.688;2022-09-09T03:08:02;32.92;;;16.88;;
28170;SDS011;15458;53.346;-1.688;2022-09-09T03:10:28;34.10;;;17.30;;
28170;SDS011;15458;53.346;-1.688;2022-09-09T03:12:54;37.40;;;17.73;;
28170;SDS011;15458;53.346;-1.688;2022-09-09T03:15:20;33.58;;;15.68;;
28170;SDS011;15458;53.346;-1.688;2022-09-09T03:17:46;38.72;;;17.02;;
28170;SDS011;15458;53.346;-1.688;2022-09-09T03:20:12;28.70;;;12.52;;
28170;SDS011;15458;53.346;-1.688;2022-09-09T03:22:38;31.10;;;15.52;;
28170;SDS011;15458;53.346;-1.688;2022-09-09T03:25:04;37.97;;;16.33;;
28170;SDS011;15458;53.346;-1.688;2022-09-09T03:27:30;31.30;;;14.40;;
28170;SDS011;15458;53.346;-1.688;2022-09-09T03:29:56;17.98;;;10.77;;
28170;SDS011;15458;53.346;-1.688;2022-09-09T03:32:22;27.63;;;14.23;;
28170;SDS011;15458;53.346;-1.688;2022-09-09T03:34:50;29.40;;;14.75;;
28170;SDS011;15458;53.346;-1.688;2022-09-09T03:37:17;25.70;;;15.30;;
28170;SDS011;15458;53.346;-1.688;2022-09-09T03:39:43;26.90;;;15.18;;
28170;SDS011;15458;53.346;-1.688;2022-09-09T03:42:11;26.02;;;14.65;;
28170;SDS011;15458;53.346;-1.688;2022-09-09T03:44:39;30.25;;;15.60;;
28170;SDS011;15458;53.346;-1.688;2022-09-09T03:47:05;26.40;;;14.48;;
28170;SDS011;15458;53.346;-1.688;2022-09-09T03:49:31;26.15;;;13.25;;
28170;SDS011;15458;53.346;-1.688;2022-09-09T03:51:57;26.05;;;14.40;;
28170;SDS011;15458;53.346;-1.688;2022-09-09T03:54:24;30.83;;;14.18;;
28170;SDS011;15458;53.346;-1.688;2022-09-09T03:56:50;27.73;;;15.30;;
28170;SDS011;15458;53.346;-1.688;2022-09-09T03:59:16;33.90;;;14.27;;
28170;SDS011;15458;53.346;-1.688;2022-09-09T04:01:41;30.02;;;16.48;;
28170;SDS011;15458;53.346;-1.688;2022-09-09T04:04:07;29.98;;;14.48;;
28170;SDS011;15458;53.346;-1.688;2022-09-09T04:06:34;29.85;;;13.82;;
28170;SDS011;15458;53.346;-1.688;2022-09-09T04:09:00;27.02;;;14.15;;
28170;SDS011;15458;53.346;-1.688;2022-09-09T04:11:28;32.33;;;15.70;;
28170;SDS011;15458;53.346;-1.688;2022-09-09T04:13:54;28.63;;;14.60;;
28170;SDS011;15458;53.346;-1.688;2022-09-09T04:16:19;30.27;;;16.27;;
28170;SDS011;15458;53.346;-1.688;2022-09-09T04:18:45;27.00;;;15.18;;
28170;SDS011;15458;53.346;-1.688;2022-09-09T04:21:11;35.30;;;16.58;;
28170;SDS011;15458;53.346;-1.688;2022-09-09T04:23:37;31.23;;;16.73;;
28170;SDS011;15458;53.346;-1.688;2022-09-09T04:26:04;29.15;;;14.25;;
28170;SDS011;15458;53.346;-1.688;2022-09-09T04:28:31;36.38;;;16.77;;
28170;SDS011;15458;53.346;-1.688;2022-09-09T04:31:07;32.47;;;16.27;;
28170;SDS011;15458;53.346;-1.688;2022-09-09T04:33:36;27.50;;;14.50;;
28170;SDS011;15458;53.346;-1.688;2022-09-09T04:36:03;31.02;;;14.63;;
28170;SDS011;15458;53.346;-1.688;2022-09-09T04:38:29;30.27;;;14.80;;
28170;SDS011;15458;53.346;-1.688;2022-09-09T04:40:55;27.85;;;14.77;;
28170;SDS011;15458;53.346;-1.688;2022-09-09T04:43:21;25.45;;;13.77;;
28170;SDS011;15458;53.346;-1.688;2022-09-09T04:45:48;22.58;;;12.35;;
28170;SDS011;15458;53.346;-1.688;2022-09-09T04:48:16;29.60;;;13.65;;
28170;SDS011;15458;53.346;-1.688;2022-09-09T04:50:42;31.30;;;14.38;;
28170;SDS011;15458;53.346;-1.688;2022-09-09T04:53:08;27.20;;;13.40;;
28170;SDS011;15458;53.346;-1.688;2022-09-09T04:55:34;31.65;;;14.82;;
28170;SDS011;15458;53.346;-1.688;2022-09-09T04:58:07;27.85;;;14.27;;
28170;SDS011;15458;53.346;-1.688;2022-09-09T05:00:36;29.25;;;12.95;;
28170;SDS011;15458;53.346;-1.688;2022-09-09T05:03:03;25.27;;;12.48;;
28170;SDS011;15458;53.346;-1.688;2022-09-09T05:05:30;26.13;;;12.80;;
28170;SDS011;15458;53.346;-1.688;2022-09-09T05:08:00;25.38;;;13.65;;
28170;SDS011;15458;53.346;-1.688;2022-09-09T05:10:30;29.60;;;13.43;;
28170;SDS011;15458;53.346;-1.688;2022-09-09T05:12:56;24.52;;;12.10;;
28170;SDS011;15458;53.346;-1.688;2022-09-09T05:15:22;24.77;;;12.98;;
28170;SDS011;15458;53.346;-1.688;2022-09-09T05:17:48;32.45;;;12.02;;
28170;SDS011;15458;53.346;-1.688;2022-09-09T05:20:13;22.17;;;10.85;;
28170;SDS011;15458;53.346;-1.688;2022-09-09T05:22:39;22.45;;;11.20;;
28170;SDS011;15458;53.346;-1.688;2022-09-09T05:25:05;19.27;;;9.73;;
28170;SDS011;15458;53.346;-1.688;2022-09-09T05:27:33;27.48;;;11.90;;
28170;SDS011;15458;53.346;-1.688;2022-09-09T05:29:59;28.05;;;12.20;;
28170;SDS011;15458;53.346;-1.688;2022-09-09T05:32:25;21.85;;;11.50;;
28170;SDS011;15458;53.346;-1.688;2022-09-09T05:34:51;28.77;;;13.48;;
28170;SDS011;15458;53.346;-1.688;2022-09-09T05:37:17;16.02;;;9.27;;
28170;SDS011;15458;53.346;-1.688;2022-09-09T05:39:43;30.10;;;12.48;;
28170;SDS011;15458;53.346;-1.688;2022-09-09T05:42:08;24.95;;;13.20;;
28170;SDS011;15458;53.346;-1.688;2022-09-09T05:44:34;30.73;;;15.70;;
28170;SDS011;15458;53.346;-1.688;2022-09-09T05:47:00;25.63;;;12.73;;
28170;SDS011;15458;53.346;-1.688;2022-09-09T05:49:26;26.80;;;12.65;;
28170;SDS011;15458;53.346;-1.688;2022-09-09T05:51:52;34.45;;;14.57;;
28170;SDS011;15458;53.346;-1.688;2022-09-09T05:54:19;25.90;;;11.82;;
28170;SDS011;15458;53.346;-1.688;2022-09-09T05:56:44;25.25;;;11.80;;
28170;SDS011;15458;53.346;-1.688;2022-09-09T05:59:10;22.15;;;11.95;;
28170;SDS011;15458;53.346;-1.688;2022-09-09T06:01:37;24.15;;;12.85;;
28170;SDS011;15458;53.346;-1.688;2022-09-09T06:04:07;21.13;;;12.18;;
28170;SDS011;15458;53.346;-1.688;2022-09-09T06:06:34;25.15;;;12.18;;
28170;SDS011;15458;53.346;-1.688;2022-09-09T06:09:02;25.75;;;11.98;;
28170;SDS011;15458;53.346;-1.688;2022-09-09T06:11:31;29.73;;;13.10;;
28170;SDS011;15458;53.346;-1.688;2022-09-09T06:13:59;24.45;;;13.15;;
28170;SDS011;15458;53.346;-1.688;2022-09-09T06:16:26;26.50;;;13.27;;
28170;SDS011;15458;53.346;-1.688;2022-09-09T06:18:53;24.55;;;12.85;;
28170;SDS011;15458;53.346;-1.688;2022-09-09T06:21:25;21.17;;;12.27;;
28170;SDS011;15458;53.346;-1.688;2022-09-09T06:23:54;24.67;;;11.90;;
28170;SDS011;15458;53.346;-1.688;2022-09-09T06:26:24;22.25;;;12.07;;
28170;SDS011;15458;53.346;-1.688;2022-09-09T06:28:55;30.40;;;13.02;;
28170;SDS011;15458;53.346;-1.688;2022-09-09T06:31:24;31.27;;;14.00;;
28170;SDS011;15458;53.346;-1.688;2022-09-09T06:33:52;22.20;;;11.32;;
28170;SDS011;15458;53.346;-1.688;2022-09-09T06:36:27;27.67;;;12.43;;
28170;SDS011;15458;53.346;-1.688;2022-09-09T06:38:54;27.05;;;9.85;;
28170;SDS011;15458;53.346;-1.688;2022-09-09T06:41:21;20.73;;;11.90;;
28170;SDS011;15458;53.346;-1.688;2022-09-09T06:43:48;21.80;;;12.05;;
28170;SDS011;15458;53.346;-1.688;2022-09-09T06:46:18;22.20;;;12.38;;
28170;SDS011;15458;53.346;-1.688;2022-09-09T06:48:47;21.88;;;10.85;;
28170;SDS011;15458;53.346;-1.688;2022-09-09T06:51:17;25.75;;;11.95;;
28170;SDS011;15458;53.346;-1.688;2022-09-09T06:53:44;20.60;;;11.10;;
28170;SDS011;15458;53.346;-1.688;2022-09-09T06:58:40;20.48;;;11.10;;
28170;SDS011;15458;53.346;-1.688;2022-09-09T07:01:08;27.27;;;11.93;;
28170;SDS011;15458;53.346;-1.688;2022-09-09T07:03:35;17.15;;;9.52;;
28170;SDS011;15458;53.346;-1.688;2022-09-09T07:06:01;19.90;;;11.05;;
28170;SDS011;15458;53.346;-1.688;2022-09-09T07:08:27;18.65;;;11.50;;
28170;SDS011;15458;53.346;-1.688;2022-09-09T07:10:53;24.48;;;11.73;;
28170;SDS011;15458;53.346;-1.688;2022-09-09T07:13:28;25.02;;;12.45;;
28170;SDS011;15458;53.346;-1.688;2022-09-09T07:15:53;20.15;;;11.23;;
28170;SDS011;15458;53.346;-1.688;2022-09-09T07:18:19;21.73;;;12.07;;
28170;SDS011;15458;53.346;-1.688;2022-09-09T07:20:54;23.30;;;12.43;;
28170;SDS011;15458;53.346;-1.688;2022-09-09T07:23:22;23.45;;;12.60;;
28170;SDS011;15458;53.346;-1.688;2022-09-09T07:25:48;21.30;;;11.43;;
28170;SDS011;15458;53.346;-1.688;2022-09-09T07:28:15;22.83;;;12.00;;
28170;SDS011;15458;53.346;-1.688;2022-09-09T07:30:41;26.67;;;13.55;;
28170;SDS011;15458;53.346;-1.688;2022-09-09T07:33:07;26.73;;;13.98;;
28170;SDS011;15458;53.346;-1.688;2022-09-09T07:35:34;29.52;;;13.68;;
28170;SDS011;15458;53.346;-1.688;2022-09-09T07:38:02;28.40;;;11.98;;
28170;SDS011;15458;53.346;-1.688;2022-09-09T07:40:31;31.85;;;13.45;;
28170;SDS011;15458;53.346;-1.688;2022-09-09T07:42:58;27.30;;;12.65;;
28170;SDS011;15458;53.346;-1.688;2022-09-09T07:45:24;31.92;;;14.48;;
28170;SDS011;15458;53.346;-1.688;2022-09-09T07:47:53;27.83;;;12.65;;
28170;SDS011;15458;53.346;-1.688;2022-09-09T07:50:21;24.80;;;11.85;;
28170;SDS011;15458;53.346;-1.688;2022-09-09T07:52:48;25.27;;;12.35;;
28170;SDS011;15458;53.346;-1.688;2022-09-09T07:55:15;22.58;;;11.70;;
28170;SDS011;15458;53.346;-1.688;2022-09-09T07:57:41;24.67;;;11.38;;
28170;SDS011;15458;53.346;-1.688;2022-09-09T08:00:09;21.83;;;11.52;;
28170;SDS011;15458;53.346;-1.688;2022-09-09T08:02:35;22.33;;;10.23;;
28170;SDS011;15458;53.346;-1.688;2022-09-09T08:05:01;21.55;;;10.43;;
28170;SDS011;15458;53.346;-1.688;2022-09-09T08:07:27;23.17;;;11.35;;
28170;SDS011;15458;53.346;-1.688;2022-09-09T08:09:54;24.33;;;10.25;;
28170;SDS011;15458;53.346;-1.688;2022-09-09T08:12:20;15.98;;;9.88;;
28170;SDS011;15458;53.346;-1.688;2022-09-09T08:14:46;19.67;;;10.77;;
28170;SDS011;15458;53.346;-1.688;2022-09-09T08:17:13;17.75;;;8.95;;
28170;SDS011;15458;53.346;-1.688;2022-09-09T08:19:39;16.30;;;9.38;;
28170;SDS011;15458;53.346;-1.688;2022-09-09T08:22:05;20.17;;;9.68;;
28170;SDS011;15458;53.346;-1.688;2022-09-09T08:24:30;18.83;;;8.45;;
28170;SDS011;15458;53.346;-1.688;2022-09-09T08:26:56;14.30;;;7.82;;
28170;SDS011;15458;53.346;-1.688;2022-09-09T08:29:22;16.35;;;7.95;;
28170;SDS011;15458;53.346;-1.688;2022-09-09T08:34:19;18.13;;;8.70;;
28170;SDS011;15458;53.346;-1.688;2022-09-09T08:36:46;21.45;;;9.48;;
28170;SDS011;15458;53.346;-1.688;2022-09-09T08:39:14;20.65;;;9.40;;
28170;SDS011;15458;53.346;-1.688;2022-09-09T08:48:44;19.00;;;7.95;;
28170;SDS011;15458;53.346;-1.688;2022-09-09T08:50:45;22.88;;;8.82;;
28170;SDS011;15458;53.346;-1.688;2022-09-09T08:53:26;18.50;;;7.32;;
28170;SDS011;15458;53.346;-1.688;2022-09-09T08:55:57;21.30;;;8.05;;
28170;SDS011;15458;53.346;-1.688;2022-09-09T08:58:33;16.90;;;6.00;;
28170;SDS011;15458;53.346;-1.688;2022-09-09T09:01:02;9.50;;;5.70;;
28170;SDS011;15458;53.346;-1.688;2022-09-09T09:06:23;11.43;;;5.32;;
28170;SDS011;15458;53.346;-1.688;2022-09-09T09:11:57;8.65;;;5.38;;
28170;SDS011;15458;53.346;-1.688;2022-09-09T09:14:30;10.98;;;5.97;;
28170;SDS011;15458;53.346;-1.688;2022-09-09T09:17:18;9.77;;;5.30;;
28170;SDS011;15458;53.346;-1.688;2022-09-09T09:19:50;14.23;;;5.43;;
28170;SDS011;15458;53.346;-1.688;2022-09-09T09:22:17;10.93;;;3.92;;
28170;SDS011;15458;53.346;-1.688;2022-09-09T09:24:54;7.57;;;4.05;;
28170;SDS011;15458;53.346;-1.688;2022-09-09T09:27:37;9.32;;;3.80;;
28170;SDS011;15458;53.346;-1.688;2022-09-09T09:30:15;9.15;;;3.17;;
28170;SDS011;15458;53.346;-1.688;2022-09-09T09:32:43;8.05;;;3.22;;
28170;SDS011;15458;53.346;-1.688;2022-09-09T09:35:24;13.63;;;3.00;;
28170;SDS011;15458;53.346;-1.688;2022-09-09T09:37:50;7.60;;;2.88;;
28170;SDS011;15458;53.346;-1.688;2022-09-09T09:40:22;6.53;;;2.30;;
28170;SDS011;15458;53.346;-1.688;2022-09-09T09:42:52;4.22;;;1.80;;
28170;SDS011;15458;53.346;-1.688;2022-09-09T09:45:34;5.22;;;2.05;;
28170;SDS011;15458;53.346;-1.688;2022-09-09T09:48:08;8.88;;;2.67;;
28170;SDS011;15458;53.346;-1.688;2022-09-09T09:50:40;6.68;;;2.05;;
28170;SDS011;15458;53.346;-1.688;2022-09-09T09:53:37;8.20;;;2.30;;
28170;SDS011;15458;53.346;-1.688;2022-09-09T09:56:07;5.22;;;1.52;;
28170;SDS011;15458;53.346;-1.688;2022-09-09T10:01:31;6.82;;;1.80;;
28170;SDS011;15458;53.346;-1.688;2022-09-09T10:04:01;7.25;;;1.23;;
28170;SDS011;15458;53.346;-1.688;2022-09-09T10:06:42;6.78;;;1.40;;
28170;SDS011;15458;53.346;-1.688;2022-09-09T10:09:28;6.80;;;1.50;;
28170;SDS011;15458;53.346;-1.688;2022-09-09T10:23:19;5.35;;;1.50;;
28170;SDS011;15458;53.346;-1.688;2022-09-09T10:31:37;3.53;;;1.40;;
28170;SDS011;15458;53.346;-1.688;2022-09-09T10:39:48;7.80;;;1.90;;
28170;SDS011;15458;53.346;-1.688;2022-09-09T10:42:23;7.00;;;1.27;;
28170;SDS011;15458;53.346;-1.688;2022-09-09T10:45:15;5.38;;;1.10;;
28170;SDS011;15458;53.346;-1.688;2022-09-09T10:55:56;3.47;;;0.93;;
28170;SDS011;15458;53.346;-1.688;2022-09-09T10:58:59;8.25;;;1.27;;
28170;SDS011;15458;53.346;-1.688;2022-09-09T11:01:39;1.95;;;1.10;;
28170;SDS011;15458;53.346;-1.688;2022-09-09T11:04:15;3.80;;;1.20;;
28170;SDS011;15458;53.346;-1.688;2022-09-09T11:06:52;6.43;;;1.75;;
28170;SDS011;15458;53.346;-1.688;2022-09-09T11:09:27;2.85;;;0.95;;
28170;SDS011;15458;53.346;-1.688;2022-09-09T11:11:56;7.90;;;1.10;;
28170;SDS011;15458;53.346;-1.688;2022-09-09T11:21:51;6.00;;;1.08;;
28170;SDS011;15458;53.346;-1.688;2022-09-09T11:27:22;3.55;;;1.20;;
28170;SDS011;15458;53.346;-1.688;2022-09-09T11:40:54;5.47;;;1.10;;
28170;SDS011;15458;53.346;-1.688;2022-09-09T11:43:27;6.82;;;1.10;;
28170;SDS011;15458;53.346;-1.688;2022-09-09T11:46:03;3.25;;;0.93;;
28170;SDS011;15458;53.346;-1.688;2022-09-09T11:48:46;7.28;;;1.52;;
28170;SDS011;15458;53.346;-1.688;2022-09-09T11:53:49;5.45;;;1.52;;
28170;SDS011;15458;53.346;-1.688;2022-09-09T11:56:50;5.78;;;1.20;;
28170;SDS011;15458;53.346;-1.688;2022-09-09T11:59:19;2.63;;;0.80;;
28170;SDS011;15458;53.346;-1.688;2022-09-09T12:01:59;4.82;;;1.38;;
28170;SDS011;15458;53.346;-1.688;2022-09-09T12:04:40;5.85;;;1.23;;
28170;SDS011;15458;53.346;-1.688;2022-09-09T12:07:25;5.53;;;1.10;;
28170;SDS011;15458;53.346;-1.688;2022-09-09T12:09:52;4.25;;;1.55;;
28170;SDS011;15458;53.346;-1.688;2022-09-09T12:15:00;4.22;;;1.05;;
28170;SDS011;15458;53.346;-1.688;2022-09-09T12:17:36;5.75;;;1.17;;
28170;SDS011;15458;53.346;-1.688;2022-09-09T12:20:14;4.90;;;1.20;;
28170;SDS011;15458;53.346;-1.688;2022-09-09T12:28:03;3.42;;;1.00;;
28170;SDS011;15458;53.346;-1.688;2022-09-09T12:33:48;5.65;;;1.20;;
28170;SDS011;15458;53.346;-1.688;2022-09-09T12:36:15;8.95;;;1.10;;
28170;SDS011;15458;53.346;-1.688;2022-09-09T12:41:24;3.70;;;0.77;;
28170;SDS011;15458;53.346;-1.688;2022-09-09T12:44:08;4.47;;;1.40;;
28170;SDS011;15458;53.346;-1.688;2022-09-09T12:46:36;3.85;;;0.88;;
28170;SDS011;15458;53.346;-1.688;2022-09-09T12:51:54;3.10;;;1.33;;
28170;SDS011;15458;53.346;-1.688;2022-09-09T12:54:22;6.53;;;1.10;;
28170;SDS011;15458;53.346;-1.688;2022-09-09T12:56:48;2.63;;;0.50;;
28170;SDS011;15458;53.346;-1.688;2022-09-09T12:59:25;1.08;;;0.43;;
28170;SDS011;15458;53.346;-1.688;2022-09-09T13:02:00;1.10;;;0.50;;
28170;SDS011;15458;53.346;-1.688;2022-09-09T13:04:25;2.08;;;0.90;;
28170;SDS011;15458;53.346;-1.688;2022-09-09T13:06:51;1.95;;;0.60;;
28170;SDS011;15458;53.346;-1.688;2022-09-09T13:09:17;2.97;;;0.60;;
28170;SDS011;15458;53.346;-1.688;2022-09-09T13:11:46;2.88;;;0.50;;
28170;SDS011;15458;53.346;-1.688;2022-09-09T13:14:28;3.83;;;1.17;;
28170;SDS011;15458;53.346;-1.688;2022-09-09T13:17:00;1.17;;;0.40;;
28170;SDS011;15458;53.346;-1.688;2022-09-09T13:19:32;1.77;;;0.60;;
28170;SDS011;15458;53.346;-1.688;2022-09-09T13:22:13;3.13;;;0.60;;
28170;SDS011;15458;53.346;-1.688;2022-09-09T13:24:48;5.47;;;0.63;;
28170;SDS011;15458;53.346;-1.688;2022-09-09T13:27:32;2.03;;;0.65;;
28170;SDS011;15458;53.346;-1.688;2022-09-09T13:30:19;2.33;;;0.52;;
28170;SDS011;15458;53.346;-1.688;2022-09-09T13:33:01;2.67;;;0.73;;
28170;SDS011;15458;53.346;-1.688;2022-09-09T13:35:27;3.83;;;0.93;;
28170;SDS011;15458;53.346;-1.688;2022-09-09T13:37:53;2.13;;;0.80;;
28170;SDS011;15458;53.346;-1.688;2022-09-09T13:40:19;3.38;;;0.85;;
28170;SDS011;15458;53.346;-1.688;2022-09-09T13:42:47;2.38;;;0.82;;
28170;SDS011;15458;53.346;-1.688;2022-09-09T13:45:19;2.33;;;0.40;;
28170;SDS011;15458;53.346;-1.688;2022-09-09T13:47:51;1.77;;;0.40;;
28170;SDS011;15458;53.346;-1.688;2022-09-09T13:50:29;1.63;;;0.90;;
28170;SDS011;15458;53.346;-1.688;2022-09-09T13:52:56;2.45;;;0.60;;
28170;SDS011;15458;53.346;-1.688;2022-09-09T13:55:23;2.95;;;0.70;;
28170;SDS011;15458;53.346;-1.688;2022-09-09T13:57:58;1.10;;;0.50;;
28170;SDS011;15458;53.346;-1.688;2022-09-09T14:00:31;0.65;;;0.45;;
28170;SDS011;15458;53.346;-1.688;2022-09-09T14:02:58;1.38;;;0.77;;
28170;SDS011;15458;53.346;-1.688;2022-09-09T14:05:27;2.38;;;0.63;;
28170;SDS011;15458;53.346;-1.688;2022-09-09T14:07:56;1.17;;;0.50;;
28170;SDS011;15458;53.346;-1.688;2022-09-09T14:10:23;1.60;;;0.50;;
28170;SDS011;15458;53.346;-1.688;2022-09-09T14:12:48;1.75;;;0.55;;
28170;SDS011;15458;53.346;-1.688;2022-09-09T14:15:14;1.63;;;0.40;;
28170;SDS011;15458;53.346;-1.688;2022-09-09T14:17:41;1.25;;;0.60;;
28170;SDS011;15458;53.346;-1.688;2022-09-09T14:20:07;2.28;;;0.60;;
28170;SDS011;15458;53.346;-1.688;2022-09-09T14:22:34;1.10;;;0.40;;
28170;SDS011;15458;53.346;-1.688;2022-09-09T14:25:01;3.75;;;0.60;;
28170;SDS011;15458;53.346;-1.688;2022-09-09T14:27:27;0.95;;;0.30;;
28170;SDS011;15458;53.346;-1.688;2022-09-09T14:29:53;1.80;;;0.50;;
28170;SDS011;15458;53.346;-1.688;2022-09-09T14:32:19;1.13;;;0.35;;
28170;SDS011;15458;53.346;-1.688;2022-09-09T14:34:48;4.80;;;0.40;;
28170;SDS011;15458;53.346;-1.688;2022-09-09T14:37:16;1.40;;;0.40;;
28170;SDS011;15458;53.346;-1.688;2022-09-09T14:39:43;2.53;;;0.60;;
28170;SDS011;15458;53.346;-1.688;2022-09-09T14:42:16;0.65;;;0.20;;
28170;SDS011;15458;53.346;-1.688;2022-09-09T14:44:44;0.63;;;0.30;;
28170;SDS011;15458;53.346;-1.688;2022-09-09T14:47:22;0.40;;;0.20;;
28170;SDS011;15458;53.346;-1.688;2022-09-09T14:49:48;0.57;;;0.10;;
28170;SDS011;15458;53.346;-1.688;2022-09-09T14:52:14;0.13;;;0.13;;
28170;SDS011;15458;53.346;-1.688;2022-09-09T14:54:41;0.00;;;0.00;;
28170;SDS011;15458;53.346;-1.688;2022-09-09T14:57:07;0.52;;;0.25;;
28170;SDS011;15458;53.346;-1.688;2022-09-09T14:59:32;1.13;;;0.20;;
28170;SDS011;15458;53.346;-1.688;2022-09-09T15:01:59;0.17;;;0.10;;
28170;SDS011;15458;53.346;-1.688;2022-09-09T15:04:29;1.93;;;0.33;;
28170;SDS011;15458;53.346;-1.688;2022-09-09T15:06:54;3.03;;;0.28;;
28170;SDS011;15458;53.346;-1.688;2022-09-09T15:09:20;0.45;;;0.10;;
28170;SDS011;15458;53.346;-1.688;2022-09-09T15:11:46;0.10;;;0.10;;
28170;SDS011;15458;53.346;-1.688;2022-09-09T15:14:12;1.17;;;0.10;;
28170;SDS011;15458;53.346;-1.688;2022-09-09T15:16:38;2.60;;;0.40;;
28170;SDS011;15458;53.346;-1.688;2022-09-09T15:19:04;0.52;;;0.20;;
28170;SDS011;15458;53.346;-1.688;2022-09-09T15:21:31;1.95;;;0.40;;
28170;SDS011;15458;53.346;-1.688;2022-09-09T15:23:59;1.48;;;0.25;;
28170;SDS011;15458;53.346;-1.688;2022-09-09T15:26:25;2.08;;;0.30;;
28170;SDS011;15458;53.346;-1.688;2022-09-09T15:28:52;1.95;;;0.40;;
28170;SDS011;15458;53.346;-1.688;2022-09-09T15:31:19;2.05;;;0.50;;
28170;SDS011;15458;53.346;-1.688;2022-09-09T15:33:50;2.97;;;0.70;;
28170;SDS011;15458;53.346;-1.688;2022-09-09T15:36:26;4.72;;;1.17;;
28170;SDS011;15458;53.346;-1.688;2022-09-09T15:38:54;1.10;;;0.60;;
28170;SDS011;15458;53.346;-1.688;2022-09-09T15:41:20;0.98;;;0.60;;
28170;SDS011;15458;53.346;-1.688;2022-09-09T15:43:48;1.60;;;0.50;;
28170;SDS011;15458;53.346;-1.688;2022-09-09T15:48:55;0.68;;;0.50;;
28170;SDS011;15458;53.346;-1.688;2022-09-09T15:51:23;1.88;;;0.52;;
28170;SDS011;15458;53.346;-1.688;2022-09-09T15:54:08;1.23;;;0.70;;
28170;SDS011;15458;53.346;-1.688;2022-09-09T15:56:38;2.78;;;0.65;;
28170;SDS011;15458;53.346;-1.688;2022-09-09T15:59:05;4.95;;;0.63;;
28170;SDS011;15458;53.346;-1.688;2022-09-09T16:01:30;1.85;;;0.70;;
28170;SDS011;15458;53.346;-1.688;2022-09-09T16:03:57;2.88;;;0.70;;
28170;SDS011;15458;53.346;-1.688;2022-09-09T16:06:25;5.10;;;1.13;;
28170;SDS011;15458;53.346;-1.688;2022-09-09T16:08:53;3.05;;;0.60;;
28170;SDS011;15458;53.346;-1.688;2022-09-09T16:11:21;1.10;;;0.63;;
28170;SDS011;15458;53.346;-1.688;2022-09-09T16:13:48;1.60;;;0.47;;
28170;SDS011;15458;53.346;-1.688;2022-09-09T16:16:16;1.70;;;0.47;;
28170;SDS011;15458;53.346;-1.688;2022-09-09T16:18:48;1.60;;;0.40;;
28170;SDS011;15458;53.346;-1.688;2022-09-09T16:21:25;1.88;;;0.60;;
28170;SDS011;15458;53.346;-1.688;2022-09-09T16:23:54;1.58;;;0.60;;
28170;SDS011;15458;53.346;-1.688;2022-09-09T16:26:21;2.40;;;0.50;;
28170;SDS011;15458;53.346;-1.688;2022-09-09T16:28:48;1.85;;;0.55;;
28170;SDS011;15458;53.346;-1.688;2022-09-09T16:31:21;5.10;;;0.60;;
28170;SDS011;15458;53.346;-1.688;2022-09-09T16:33:48;1.92;;;0.60;;
28170;SDS011;15458;53.346;-1.688;2022-09-09T16:36:18;1.33;;;0.50;;
28170;SDS011;15458;53.346;-1.688;2022-09-09T16:38:45;1.92;;;0.75;;
28170;SDS011;15458;53.346;-1.688;2022-09-09T16:41:11;2.35;;;0.80;;
28170;SDS011;15458;53.346;-1.688;2022-09-09T16:43:42;1.17;;;0.50;;
28170;SDS011;15458;53.346;-1.688;2022-09-09T16:46:12;0.85;;;0.32;;
28170;SDS011;15458;53.346;-1.688;2022-09-09T16:48:40;1.05;;;0.40;;
28170;SDS011;15458;53.346;-1.688;2022-09-09T16:51:14;1.47;;;0.80;;
28170;SDS011;15458;53.346;-1.688;2022-09-09T16:53:43;2.38;;;0.32;;
28170;SDS011;15458;53.346;-1.688;2022-09-09T16:56:13;1.20;;;0.38;;
28170;SDS011;15458;53.346;-1.688;2022-09-09T16:58:41;0.40;;;0.20;;
28170;SDS011;15458;53.346;-1.688;2022-09-09T17:01:15;1.02;;;0.30;;
28170;SDS011;15458;53.346;-1.688;2022-09-09T17:03:40;1.17;;;0.30;;
28170;SDS011;15458;53.346;-1.688;2022-09-09T17:06:10;1.30;;;0.40;;